sensor_id;sensor_type;location;lat;lon;timestamp;P1;durP1;ratioP1;P2;durP2;ratioP2
35691;SDS011;26978;44.830;-0.674;2023-04-24T00:02:23;31.10;;;4.50;;
35691;SDS011;26978;44.830;-0.674;2023-04-24T00:04:49;38.42;;;4.47;;
35691;SDS011;26978;44.830;-0.674;2023-04-24T00:07:14;27.67;;;4.22;;
35691;SDS011;26978;44.830;-0.674;2023-04-24T00:09:41;30.70;;;4.65;;
35691;SDS011;26978;44.830;-0.674;2023-04-24T00:12:08;33.92;;;4.60;;
35691;SDS011;26978;44.830;-0.674;2023-04-24T00:14:34;30.42;;;4.28;;
35691;SDS011;26978;44.830;-0.674;2023-04-24T00:17:00;32.42;;;4.72;;
35691;SDS011;26978;44.830;-0.674;2023-04-24T00:19:27;26.55;;;3.90;;
35691;SDS011;26978;44.830;-0.674;2023-04-24T00:21:53;41.72;;;4.55;;
35691;SDS011;26978;44.830;-0.674;2023-04-24T00:24:20;33.85;;;4.65;;
35691;SDS011;26978;44.830;-0.674;2023-04-24T00:26:46;33.75;;;4.80;;
35691;SDS011;26978;44.830;-0.674;2023-04-24T00:29:12;36.10;;;4.10;;
35691;SDS011;26978;44.830;-0.674;2023-04-24T00:31:37;30.30;;;4.00;;
35691;SDS011;26978;44.830;-0.674;2023-04-24T00:34:04;35.75;;;4.53;;
35691;SDS011;26978;44.830;-0.674;2023-04-24T00:36:30;30.27;;;4.05;;
35691;SDS011;26978;44.830;-0.674;2023-04-24T00:38:57;28.33;;;4.57;;
35691;SDS011;26978;44.830;-0.674;2023-04-24T00:41:22;31.35;;;3.83;;
35691;SDS011;26978;44.830;-0.674;2023-04-24T00:43:49;20.85;;;4.20;;
35691;SDS011;26978;44.830;-0.674;2023-04-24T00:46:16;29.65;;;3.58;;
35691;SDS011;26978;44.830;-0.674;2023-04-24T00:48:42;28.92;;;4.10;;
35691;SDS011;26978;44.830;-0.674;2023-04-24T00:51:08;33.92;;;4.55;;
35691;SDS011;26978;44.830;-0.674;2023-04-24T00:53:34;38.13;;;5.22;;
35691;SDS011;26978;44.830;-0.674;2023-04-24T00:56:00;31.05;;;4.35;;
35691;SDS011;26978;44.830;-0.674;2023-04-24T00:58:27;35.38;;;5.18;;
35691;SDS011;26978;44.830;-0.674;2023-04-24T01:00:54;30.23;;;4.90;;
35691;SDS011;26978;44.830;-0.674;2023-04-24T01:03:21;29.65;;;4.22;;
35691;SDS011;26978;44.830;-0.674;2023-04-24T01:05:49;31.45;;;4.80;;
35691;SDS011;26978;44.830;-0.674;2023-04-24T01:08:16;34.13;;;4.13;;
35691;SDS011;26978;44.830;-0.674;2023-04-24T01:10:42;32.03;;;5.10;;
35691;SDS011;26978;44.830;-0.674;2023-04-24T01:13:10;31.17;;;4.55;;
35691;SDS011;26978;44.830;-0.674;2023-04-24T01:15:35;29.73;;;5.30;;
35691;SDS011;26978;44.830;-0.674;2023-04-24T01:18:01;28.17;;;4.65;;
35691;SDS011;26978;44.830;-0.674;2023-04-24T01:20:27;29.42;;;4.40;;
35691;SDS011;26978;44.830;-0.674;2023-04-24T01:22:55;31.70;;;5.60;;
35691;SDS011;26978;44.830;-0.674;2023-04-24T01:25:21;29.50;;;4.43;;
35691;SDS011;26978;44.830;-0.674;2023-04-24T01:27:47;31.05;;;4.28;;
35691;SDS011;26978;44.830;-0.674;2023-04-24T01:30:13;43.15;;;6.20;;
35691;SDS011;26978;44.830;-0.674;2023-04-24T01:32:40;24.15;;;4.60;;
35691;SDS011;26978;44.830;-0.674;2023-04-24T01:35:09;30.20;;;4.28;;
35691;SDS011;26978;44.830;-0.674;2023-04-24T01:37:35;31.20;;;4.28;;
35691;SDS011;26978;44.830;-0.674;2023-04-24T01:40:02;20.05;;;5.22;;
35691;SDS011;26978;44.830;-0.674;2023-04-24T01:42:29;25.92;;;5.57;;
35691;SDS011;26978;44.830;-0.674;2023-04-24T01:44:55;34.28;;;5.15;;
35691;SDS011;26978;44.830;-0.674;2023-04-24T01:47:22;35.38;;;5.75;;
35691;SDS011;26978;44.830;-0.674;2023-04-24T01:49:49;23.33;;;4.50;;
35691;SDS011;26978;44.830;-0.674;2023-04-24T01:52:15;28.35;;;4.53;;
35691;SDS011;26978;44.830;-0.674;2023-04-24T01:54:41;24.88;;;5.65;;
35691;SDS011;26978;44.830;-0.674;2023-04-24T01:57:07;31.35;;;5.07;;
35691;SDS011;26978;44.830;-0.674;2023-04-24T01:59:33;32.88;;;5.40;;
35691;SDS011;26978;44.830;-0.674;2023-04-24T02:02:01;29.08;;;5.28;;
35691;SDS011;26978;44.830;-0.674;2023-04-24T02:04:29;21.45;;;4.80;;
35691;SDS011;26978;44.830;-0.674;2023-04-24T02:06:55;30.55;;;5.10;;
35691;SDS011;26978;44.830;-0.674;2023-04-24T02:09:21;23.00;;;4.78;;
35691;SDS011;26978;44.830;-0.674;2023-04-24T02:11:46;31.30;;;5.10;;
35691;SDS011;26978;44.830;-0.674;2023-04-24T02:14:12;25.73;;;5.22;;
35691;SDS011;26978;44.830;-0.674;2023-04-24T02:16:38;20.33;;;4.78;;
35691;SDS011;26978;44.830;-0.674;2023-04-24T02:19:04;24.17;;;5.53;;
35691;SDS011;26978;44.830;-0.674;2023-04-24T02:21:30;22.27;;;5.28;;
35691;SDS011;26978;44.830;-0.674;2023-04-24T02:23:58;31.95;;;6.50;;
35691;SDS011;26978;44.830;-0.674;2023-04-24T02:26:24;31.80;;;6.15;;
35691;SDS011;26978;44.830;-0.674;2023-04-24T02:28:50;37.67;;;6.70;;
35691;SDS011;26978;44.830;-0.674;2023-04-24T02:31:16;19.75;;;7.10;;
35691;SDS011;26978;44.830;-0.674;2023-04-24T02:33:41;29.85;;;6.85;;
35691;SDS011;26978;44.830;-0.674;2023-04-24T02:36:07;28.98;;;7.30;;
35691;SDS011;26978;44.830;-0.674;2023-04-24T02:38:32;33.25;;;7.57;;
35691;SDS011;26978;44.830;-0.674;2023-04-24T02:40:58;25.83;;;6.47;;
35691;SDS011;26978;44.830;-0.674;2023-04-24T02:43:25;35.47;;;7.45;;
35691;SDS011;26978;44.830;-0.674;2023-04-24T02:45:51;29.63;;;5.95;;
35691;SDS011;26978;44.830;-0.674;2023-04-24T02:48:16;27.13;;;7.15;;
35691;SDS011;26978;44.830;-0.674;2023-04-24T02:50:42;26.33;;;7.32;;
35691;SDS011;26978;44.830;-0.674;2023-04-24T02:53:08;24.95;;;6.97;;
35691;SDS011;26978;44.830;-0.674;2023-04-24T02:55:33;31.67;;;7.80;;
35691;SDS011;26978;44.830;-0.674;2023-04-24T02:57:59;26.50;;;7.25;;
35691;SDS011;26978;44.830;-0.674;2023-04-24T03:00:25;28.58;;;8.25;;
35691;SDS011;26978;44.830;-0.674;2023-04-24T03:02:50;28.52;;;7.20;;
35691;SDS011;26978;44.830;-0.674;2023-04-24T03:05:16;22.88;;;7.03;;
35691;SDS011;26978;44.830;-0.674;2023-04-24T03:07:41;28.67;;;7.68;;
35691;SDS011;26978;44.830;-0.674;2023-04-24T03:10:07;22.23;;;8.55;;
35691;SDS011;26978;44.830;-0.674;2023-04-24T03:12:33;21.50;;;8.30;;
35691;SDS011;26978;44.830;-0.674;2023-04-24T03:14:59;21.85;;;7.68;;
35691;SDS011;26978;44.830;-0.674;2023-04-24T03:17:24;28.33;;;8.35;;
35691;SDS011;26978;44.830;-0.674;2023-04-24T03:19:50;20.52;;;7.55;;
35691;SDS011;26978;44.830;-0.674;2023-04-24T03:22:16;27.75;;;8.32;;
35691;SDS011;26978;44.830;-0.674;2023-04-24T03:24:41;26.25;;;8.15;;
35691;SDS011;26978;44.830;-0.674;2023-04-24T03:27:07;17.90;;;7.43;;
35691;SDS011;26978;44.830;-0.674;2023-04-24T03:29:33;31.23;;;8.38;;
35691;SDS011;26978;44.830;-0.674;2023-04-24T03:31:58;31.58;;;9.85;;
35691;SDS011;26978;44.830;-0.674;2023-04-24T03:34:24;31.17;;;10.23;;
35691;SDS011;26978;44.830;-0.674;2023-04-24T03:36:50;29.45;;;9.57;;
35691;SDS011;26978;44.830;-0.674;2023-04-24T03:39:15;26.50;;;9.25;;
35691;SDS011;26978;44.830;-0.674;2023-04-24T03:41:41;18.40;;;8.77;;
35691;SDS011;26978;44.830;-0.674;2023-04-24T03:44:07;28.17;;;9.80;;
35691;SDS011;26978;44.830;-0.674;2023-04-24T03:46:32;27.90;;;10.88;;
35691;SDS011;26978;44.830;-0.674;2023-04-24T03:48:58;23.25;;;9.90;;
35691;SDS011;26978;44.830;-0.674;2023-04-24T03:51:24;26.25;;;10.88;;
35691;SDS011;26978;44.830;-0.674;2023-04-24T03:53:50;21.80;;;10.15;;
35691;SDS011;26978;44.830;-0.674;2023-04-24T03:56:15;27.63;;;10.90;;
35691;SDS011;26978;44.830;-0.674;2023-04-24T03:58:42;28.98;;;11.00;;
35691;SDS011;26978;44.830;-0.674;2023-04-24T04:01:08;25.60;;;10.85;;
35691;SDS011;26978;44.830;-0.674;2023-04-24T04:03:33;21.80;;;10.15;;
35691;SDS011;26978;44.830;-0.674;2023-04-24T04:05:59;24.40;;;10.38;;
35691;SDS011;26978;44.830;-0.674;2023-04-24T04:08:24;21.23;;;10.30;;
35691;SDS011;26978;44.830;-0.674;2023-04-24T04:10:50;26.02;;;10.32;;
35691;SDS011;26978;44.830;-0.674;2023-04-24T04:13:16;28.33;;;9.55;;
35691;SDS011;26978;44.830;-0.674;2023-04-24T04:15:41;32.33;;;9.43;;
35691;SDS011;26978;44.830;-0.674;2023-04-24T04:18:07;22.08;;;11.15;;
35691;SDS011;26978;44.830;-0.674;2023-04-24T04:20:33;26.33;;;9.75;;
35691;SDS011;26978;44.830;-0.674;2023-04-24T04:22:59;22.13;;;9.45;;
35691;SDS011;26978;44.830;-0.674;2023-04-24T04:25:25;31.10;;;9.43;;
35691;SDS011;26978;44.830;-0.674;2023-04-24T04:27:50;20.83;;;9.65;;
35691;SDS011;26978;44.830;-0.674;2023-04-24T04:30:17;26.88;;;8.73;;
35691;SDS011;26978;44.830;-0.674;2023-04-24T04:32:43;19.55;;;8.65;;
35691;SDS011;26978;44.830;-0.674;2023-04-24T04:35:09;25.77;;;8.80;;
35691;SDS011;26978;44.830;-0.674;2023-04-24T04:37:34;23.08;;;8.38;;
35691;SDS011;26978;44.830;-0.674;2023-04-24T04:40:00;29.50;;;9.02;;
35691;SDS011;26978;44.830;-0.674;2023-04-24T04:42:31;20.13;;;8.65;;
35691;SDS011;26978;44.830;-0.674;2023-04-24T04:44:57;28.08;;;9.00;;
35691;SDS011;26978;44.830;-0.674;2023-04-24T04:47:23;25.70;;;8.43;;
35691;SDS011;26978;44.830;-0.674;2023-04-24T04:49:49;22.90;;;9.00;;
35691;SDS011;26978;44.830;-0.674;2023-04-24T04:52:16;26.95;;;8.98;;
35691;SDS011;26978;44.830;-0.674;2023-04-24T04:54:42;18.05;;;9.10;;
35691;SDS011;26978;44.830;-0.674;2023-04-24T04:57:08;28.95;;;9.73;;
35691;SDS011;26978;44.830;-0.674;2023-04-24T04:59:34;29.63;;;9.88;;
35691;SDS011;26978;44.830;-0.674;2023-04-24T05:02:00;31.05;;;9.60;;
35691;SDS011;26978;44.830;-0.674;2023-04-24T05:04:25;21.30;;;8.35;;
35691;SDS011;26978;44.830;-0.674;2023-04-24T05:06:51;28.65;;;8.75;;
35691;SDS011;26978;44.830;-0.674;2023-04-24T05:09:17;21.30;;;8.35;;
35691;SDS011;26978;44.830;-0.674;2023-04-24T05:11:44;21.10;;;8.07;;
35691;SDS011;26978;44.830;-0.674;2023-04-24T05:14:10;21.45;;;8.30;;
35691;SDS011;26978;44.830;-0.674;2023-04-24T05:16:37;20.80;;;8.30;;
35691;SDS011;26978;44.830;-0.674;2023-04-24T05:19:03;21.67;;;8.68;;
35691;SDS011;26978;44.830;-0.674;2023-04-24T05:21:29;18.75;;;8.60;;
35691;SDS011;26978;44.830;-0.674;2023-04-24T05:23:56;23.90;;;9.07;;
35691;SDS011;26978;44.830;-0.674;2023-04-24T05:26:21;26.85;;;8.77;;
35691;SDS011;26978;44.830;-0.674;2023-04-24T05:28:47;23.38;;;9.73;;
35691;SDS011;26978;44.830;-0.674;2023-04-24T05:31:13;19.48;;;8.98;;
35691;SDS011;26978;44.830;-0.674;2023-04-24T05:33:39;28.73;;;9.10;;
35691;SDS011;26978;44.830;-0.674;2023-04-24T05:36:05;26.42;;;9.50;;
35691;SDS011;26978;44.830;-0.674;2023-04-24T05:38:31;30.77;;;9.82;;
35691;SDS011;26978;44.830;-0.674;2023-04-24T05:40:57;21.23;;;9.52;;
35691;SDS011;26978;44.830;-0.674;2023-04-24T05:43:22;22.50;;;9.45;;
35691;SDS011;26978;44.830;-0.674;2023-04-24T05:45:48;22.13;;;10.45;;
35691;SDS011;26978;44.830;-0.674;2023-04-24T05:48:14;26.65;;;11.00;;
35691;SDS011;26978;44.830;-0.674;2023-04-24T05:50:39;28.02;;;11.02;;
35691;SDS011;26978;44.830;-0.674;2023-04-24T05:53:05;31.67;;;11.73;;
35691;SDS011;26978;44.830;-0.674;2023-04-24T05:55:32;24.50;;;10.88;;
35691;SDS011;26978;44.830;-0.674;2023-04-24T05:57:58;28.02;;;11.70;;
35691;SDS011;26978;44.830;-0.674;2023-04-24T06:00:24;25.27;;;10.55;;
35691;SDS011;26978;44.830;-0.674;2023-04-24T06:02:50;19.85;;;9.90;;
35691;SDS011;26978;44.830;-0.674;2023-04-24T06:05:17;21.98;;;10.52;;
35691;SDS011;26978;44.830;-0.674;2023-04-24T06:07:44;22.92;;;9.95;;
35691;SDS011;26978;44.830;-0.674;2023-04-24T06:10:10;22.80;;;10.85;;
35691;SDS011;26978;44.830;-0.674;2023-04-24T06:12:35;20.15;;;10.05;;
35691;SDS011;26978;44.830;-0.674;2023-04-24T06:15:03;22.42;;;10.50;;
35691;SDS011;26978;44.830;-0.674;2023-04-24T06:17:28;17.00;;;10.55;;
35691;SDS011;26978;44.830;-0.674;2023-04-24T06:19:55;28.38;;;10.50;;
35691;SDS011;26978;44.830;-0.674;2023-04-24T06:22:21;31.13;;;10.70;;
35691;SDS011;26978;44.830;-0.674;2023-04-24T06:24:46;27.20;;;9.57;;
35691;SDS011;26978;44.830;-0.674;2023-04-24T06:27:13;21.60;;;9.63;;
35691;SDS011;26978;44.830;-0.674;2023-04-24T06:29:39;27.13;;;11.00;;
35691;SDS011;26978;44.830;-0.674;2023-04-24T06:32:04;20.48;;;9.68;;
35691;SDS011;26978;44.830;-0.674;2023-04-24T06:34:30;31.65;;;9.82;;
35691;SDS011;26978;44.830;-0.674;2023-04-24T06:36:57;21.42;;;9.57;;
35691;SDS011;26978;44.830;-0.674;2023-04-24T06:39:23;24.35;;;9.40;;
35691;SDS011;26978;44.830;-0.674;2023-04-24T06:41:48;22.80;;;9.98;;
35691;SDS011;26978;44.830;-0.674;2023-04-24T06:44:14;23.05;;;9.43;;
35691;SDS011;26978;44.830;-0.674;2023-04-24T06:46:40;29.58;;;10.85;;
35691;SDS011;26978;44.830;-0.674;2023-04-24T06:49:06;23.70;;;10.23;;
35691;SDS011;26978;44.830;-0.674;2023-04-24T06:51:32;24.50;;;9.55;;
35691;SDS011;26978;44.830;-0.674;2023-04-24T06:53:58;20.48;;;10.10;;
35691;SDS011;26978;44.830;-0.674;2023-04-24T06:56:24;21.40;;;9.88;;
35691;SDS011;26978;44.830;-0.674;2023-04-24T06:58:50;37.65;;;11.70;;
35691;SDS011;26978;44.830;-0.674;2023-04-24T07:01:16;20.65;;;9.07;;
35691;SDS011;26978;44.830;-0.674;2023-04-24T07:03:42;27.05;;;9.25;;
35691;SDS011;26978;44.830;-0.674;2023-04-24T07:06:08;32.40;;;8.55;;
35691;SDS011;26978;44.830;-0.674;2023-04-24T07:08:36;20.80;;;8.15;;
35691;SDS011;26978;44.830;-0.674;2023-04-24T07:11:02;24.77;;;8.00;;
35691;SDS011;26978;44.830;-0.674;2023-04-24T07:13:28;23.58;;;9.10;;
35691;SDS011;26978;44.830;-0.674;2023-04-24T07:15:54;30.52;;;8.57;;
35691;SDS011;26978;44.830;-0.674;2023-04-24T07:18:21;17.52;;;5.80;;
35691;SDS011;26978;44.830;-0.674;2023-04-24T07:20:47;15.13;;;6.40;;
35691;SDS011;26978;44.830;-0.674;2023-04-24T07:23:15;26.48;;;7.05;;
35691;SDS011;26978;44.830;-0.674;2023-04-24T07:25:40;21.65;;;5.47;;
35691;SDS011;26978;44.830;-0.674;2023-04-24T07:28:06;18.17;;;4.88;;
35691;SDS011;26978;44.830;-0.674;2023-04-24T07:30:32;20.00;;;5.57;;
35691;SDS011;26978;44.830;-0.674;2023-04-24T07:32:58;21.08;;;5.57;;
35691;SDS011;26978;44.830;-0.674;2023-04-24T07:35:25;24.40;;;6.00;;
35691;SDS011;26978;44.830;-0.674;2023-04-24T07:37:54;23.45;;;5.35;;
35691;SDS011;26978;44.830;-0.674;2023-04-24T07:40:21;21.25;;;5.25;;
35691;SDS011;26978;44.830;-0.674;2023-04-24T07:42:47;18.83;;;5.22;;
35691;SDS011;26978;44.830;-0.674;2023-04-24T07:45:15;24.08;;;4.85;;
35691;SDS011;26978;44.830;-0.674;2023-04-24T07:47:42;18.90;;;5.22;;
35691;SDS011;26978;44.830;-0.674;2023-04-24T07:50:11;18.83;;;4.68;;
35691;SDS011;26978;44.830;-0.674;2023-04-24T07:52:38;19.92;;;5.05;;
35691;SDS011;26978;44.830;-0.674;2023-04-24T07:55:04;10.77;;;4.47;;
35691;SDS011;26978;44.830;-0.674;2023-04-24T07:57:30;20.67;;;4.82;;
35691;SDS011;26978;44.830;-0.674;2023-04-24T07:59:56;13.90;;;4.10;;
35691;SDS011;26978;44.830;-0.674;2023-04-24T08:02:21;15.75;;;4.00;;
35691;SDS011;26978;44.830;-0.674;2023-04-24T08:04:51;10.80;;;3.17;;
35691;SDS011;26978;44.830;-0.674;2023-04-24T08:07:18;17.63;;;3.35;;
35691;SDS011;26978;44.830;-0.674;2023-04-24T08:09:44;10.77;;;3.08;;
35691;SDS011;26978;44.830;-0.674;2023-04-24T08:12:10;12.88;;;3.88;;
35691;SDS011;26978;44.830;-0.674;2023-04-24T08:14:36;13.70;;;3.17;;
35691;SDS011;26978;44.830;-0.674;2023-04-24T08:17:01;9.38;;;2.72;;
35691;SDS011;26978;44.830;-0.674;2023-04-24T08:19:28;13.57;;;2.47;;
35691;SDS011;26978;44.830;-0.674;2023-04-24T08:21:54;15.02;;;2.85;;
35691;SDS011;26978;44.830;-0.674;2023-04-24T08:24:19;13.85;;;3.22;;
35691;SDS011;26978;44.830;-0.674;2023-04-24T08:26:45;8.48;;;2.80;;
35691;SDS011;26978;44.830;-0.674;2023-04-24T08:29:11;11.00;;;2.65;;
35691;SDS011;26978;44.830;-0.674;2023-04-24T08:31:37;9.90;;;2.38;;
35691;SDS011;26978;44.830;-0.674;2023-04-24T08:34:02;9.73;;;3.00;;
35691;SDS011;26978;44.830;-0.674;2023-04-24T08:36:28;7.32;;;2.53;;
35691;SDS011;26978;44.830;-0.674;2023-04-24T08:38:54;17.52;;;3.17;;
35691;SDS011;26978;44.830;-0.674;2023-04-24T08:41:20;7.55;;;2.60;;
35691;SDS011;26978;44.830;-0.674;2023-04-24T08:43:49;15.98;;;2.92;;
35691;SDS011;26978;44.830;-0.674;2023-04-24T08:46:16;9.88;;;2.28;;
35691;SDS011;26978;44.830;-0.674;2023-04-24T08:48:43;8.57;;;2.58;;
35691;SDS011;26978;44.830;-0.674;2023-04-24T08:51:10;11.20;;;2.47;;
35691;SDS011;26978;44.830;-0.674;2023-04-24T08:53:36;8.32;;;2.63;;
35691;SDS011;26978;44.830;-0.674;2023-04-24T08:56:02;7.05;;;2.10;;
35691;SDS011;26978;44.830;-0.674;2023-04-24T08:58:28;17.38;;;3.13;;
35691;SDS011;26978;44.830;-0.674;2023-04-24T09:00:55;9.57;;;2.92;;
35691;SDS011;26978;44.830;-0.674;2023-04-24T09:03:21;8.55;;;3.03;;
35691;SDS011;26978;44.830;-0.674;2023-04-24T09:05:47;10.23;;;2.38;;
35691;SDS011;26978;44.830;-0.674;2023-04-24T09:08:15;9.52;;;2.10;;
35691;SDS011;26978;44.830;-0.674;2023-04-24T09:10:43;11.82;;;2.63;;
35691;SDS011;26978;44.830;-0.674;2023-04-24T09:13:09;13.18;;;2.65;;
35691;SDS011;26978;44.830;-0.674;2023-04-24T09:15:36;13.23;;;2.58;;
35691;SDS011;26978;44.830;-0.674;2023-04-24T09:18:02;15.20;;;2.58;;
35691;SDS011;26978;44.830;-0.674;2023-04-24T09:20:29;7.00;;;2.30;;
35691;SDS011;26978;44.830;-0.674;2023-04-24T09:22:54;10.35;;;2.45;;
35691;SDS011;26978;44.830;-0.674;2023-04-24T09:25:22;6.22;;;2.58;;
35691;SDS011;26978;44.830;-0.674;2023-04-24T09:27:59;9.05;;;2.28;;
35691;SDS011;26978;44.830;-0.674;2023-04-24T09:30:29;11.20;;;2.72;;
35691;SDS011;26978;44.830;-0.674;2023-04-24T09:33:14;9.52;;;2.40;;
35691;SDS011;26978;44.830;-0.674;2023-04-24T09:35:41;8.52;;;2.50;;
35691;SDS011;26978;44.830;-0.674;2023-04-24T09:38:08;12.88;;;2.55;;
35691;SDS011;26978;44.830;-0.674;2023-04-24T09:40:34;12.23;;;2.65;;
35691;SDS011;26978;44.830;-0.674;2023-04-24T09:43:00;11.13;;;2.42;;
35691;SDS011;26978;44.830;-0.674;2023-04-24T09:45:28;14.07;;;2.50;;
35691;SDS011;26978;44.830;-0.674;2023-04-24T09:48:00;13.35;;;2.78;;
35691;SDS011;26978;44.830;-0.674;2023-04-24T09:50:26;12.20;;;2.65;;
35691;SDS011;26978;44.830;-0.674;2023-04-24T09:52:58;10.63;;;2.97;;
35691;SDS011;26978;44.830;-0.674;2023-04-24T09:55:26;8.20;;;2.97;;
35691;SDS011;26978;44.830;-0.674;2023-04-24T10:00:28;11.95;;;2.58;;
35691;SDS011;26978;44.830;-0.674;2023-04-24T10:02:56;8.57;;;2.75;;
35691;SDS011;26978;44.830;-0.674;2023-04-24T10:05:32;10.55;;;2.83;;
35691;SDS011;26978;44.830;-0.674;2023-04-24T10:08:01;13.60;;;3.25;;
35691;SDS011;26978;44.830;-0.674;2023-04-24T10:13:03;8.90;;;2.88;;
35691;SDS011;26978;44.830;-0.674;2023-04-24T10:15:29;11.80;;;2.65;;
35691;SDS011;26978;44.830;-0.674;2023-04-24T10:17:55;10.18;;;2.47;;
35691;SDS011;26978;44.830;-0.674;2023-04-24T10:20:24;11.45;;;3.03;;
35691;SDS011;26978;44.830;-0.674;2023-04-24T10:22:53;9.63;;;2.63;;
35691;SDS011;26978;44.830;-0.674;2023-04-24T10:25:29;15.05;;;2.30;;
35691;SDS011;26978;44.830;-0.674;2023-04-24T10:27:57;5.97;;;2.58;;
35691;SDS011;26978;44.830;-0.674;2023-04-24T10:30:27;10.40;;;2.55;;
35691;SDS011;26978;44.830;-0.674;2023-04-24T10:33:00;4.60;;;1.88;;
35691;SDS011;26978;44.830;-0.674;2023-04-24T10:35:33;13.90;;;2.30;;
35691;SDS011;26978;44.830;-0.674;2023-04-24T10:51:02;9.70;;;2.85;;
35691;SDS011;26978;44.830;-0.674;2023-04-24T10:53:29;7.75;;;2.30;;
35691;SDS011;26978;44.830;-0.674;2023-04-24T10:58:37;11.65;;;2.97;;
35691;SDS011;26978;44.830;-0.674;2023-04-24T11:03:57;16.35;;;3.08;;
35691;SDS011;26978;44.830;-0.674;2023-04-24T11:06:28;10.05;;;3.50;;
35691;SDS011;26978;44.830;-0.674;2023-04-24T11:09:04;10.13;;;3.08;;
35691;SDS011;26978;44.830;-0.674;2023-04-24T11:11:32;10.45;;;2.70;;
35691;SDS011;26978;44.830;-0.674;2023-04-24T11:19:27;13.73;;;2.88;;
35691;SDS011;26978;44.830;-0.674;2023-04-24T11:21:55;7.43;;;2.78;;
35691;SDS011;26978;44.830;-0.674;2023-04-24T11:25:06;14.95;;;3.13;;
35691;SDS011;26978;44.830;-0.674;2023-04-24T11:27:16;7.20;;;2.20;;
35691;SDS011;26978;44.830;-0.674;2023-04-24T11:34:54;9.07;;;1.85;;
35691;SDS011;26978;44.830;-0.674;2023-04-24T11:37:22;11.32;;;3.10;;
35691;SDS011;26978;44.830;-0.674;2023-04-24T11:39:58;10.70;;;2.15;;
35691;SDS011;26978;44.830;-0.674;2023-04-24T11:42:24;10.90;;;2.40;;
35691;SDS011;26978;44.830;-0.674;2023-04-24T11:44:54;10.07;;;2.55;;
35691;SDS011;26978;44.830;-0.674;2023-04-24T11:47:33;9.65;;;2.50;;
35691;SDS011;26978;44.830;-0.674;2023-04-24T11:49:59;8.50;;;2.63;;
35691;SDS011;26978;44.830;-0.674;2023-04-24T11:52:26;9.07;;;2.28;;
35691;SDS011;26978;44.830;-0.674;2023-04-24T11:54:52;8.80;;;2.17;;
35691;SDS011;26978;44.830;-0.674;2023-04-24T11:57:21;8.00;;;2.13;;
35691;SDS011;26978;44.830;-0.674;2023-04-24T11:59:49;10.10;;;2.10;;
35691;SDS011;26978;44.830;-0.674;2023-04-24T12:02:24;8.93;;;2.00;;
35691;SDS011;26978;44.830;-0.674;2023-04-24T12:04:52;6.60;;;1.75;;
35691;SDS011;26978;44.830;-0.674;2023-04-24T12:07:19;9.75;;;2.92;;
35691;SDS011;26978;44.830;-0.674;2023-04-24T12:09:46;7.38;;;1.95;;
35691;SDS011;26978;44.830;-0.674;2023-04-24T12:12:14;18.17;;;2.80;;
35691;SDS011;26978;44.830;-0.674;2023-04-24T12:14:47;9.50;;;2.00;;
35691;SDS011;26978;44.830;-0.674;2023-04-24T12:17:15;4.45;;;1.63;;
35691;SDS011;26978;44.830;-0.674;2023-04-24T12:19:45;9.38;;;2.22;;
35691;SDS011;26978;44.830;-0.674;2023-04-24T12:22:13;7.20;;;1.95;;
35691;SDS011;26978;44.830;-0.674;2023-04-24T12:24:58;8.35;;;2.30;;
35691;SDS011;26978;44.830;-0.674;2023-04-24T12:27:29;5.50;;;2.13;;
35691;SDS011;26978;44.830;-0.674;2023-04-24T12:29:59;8.65;;;2.17;;
35691;SDS011;26978;44.830;-0.674;2023-04-24T12:32:26;7.00;;;2.72;;
35691;SDS011;26978;44.830;-0.674;2023-04-24T12:34:52;6.38;;;2.10;;
35691;SDS011;26978;44.830;-0.674;2023-04-24T12:37:19;7.97;;;2.00;;
35691;SDS011;26978;44.830;-0.674;2023-04-24T12:40:04;7.50;;;1.70;;
35691;SDS011;26978;44.830;-0.674;2023-04-24T12:42:33;6.30;;;1.60;;
35691;SDS011;26978;44.830;-0.674;2023-04-24T12:45:04;7.18;;;2.00;;
35691;SDS011;26978;44.830;-0.674;2023-04-24T12:47:37;14.43;;;2.75;;
35691;SDS011;26978;44.830;-0.674;2023-04-24T12:50:03;6.25;;;2.00;;
35691;SDS011;26978;44.830;-0.674;2023-04-24T12:52:29;7.72;;;2.20;;
35691;SDS011;26978;44.830;-0.674;2023-04-24T12:54:56;6.50;;;1.73;;
35691;SDS011;26978;44.830;-0.674;2023-04-24T12:57:23;5.32;;;1.80;;
35691;SDS011;26978;44.830;-0.674;2023-04-24T12:59:50;6.18;;;1.45;;
35691;SDS011;26978;44.830;-0.674;2023-04-24T13:02:18;9.13;;;1.60;;
35691;SDS011;26978;44.830;-0.674;2023-04-24T13:04:44;8.10;;;1.80;;
35691;SDS011;26978;44.830;-0.674;2023-04-24T13:07:11;6.65;;;2.13;;
35691;SDS011;26978;44.830;-0.674;2023-04-24T13:09:38;5.10;;;1.65;;
35691;SDS011;26978;44.830;-0.674;2023-04-24T13:12:04;6.38;;;1.88;;
35691;SDS011;26978;44.830;-0.674;2023-04-24T13:14:30;9.43;;;1.83;;
35691;SDS011;26978;44.830;-0.674;2023-04-24T13:16:56;8.43;;;1.90;;
35691;SDS011;26978;44.830;-0.674;2023-04-24T13:19:24;4.22;;;1.45;;
35691;SDS011;26978;44.830;-0.674;2023-04-24T13:21:51;10.98;;;2.00;;
35691;SDS011;26978;44.830;-0.674;2023-04-24T13:24:17;6.03;;;1.70;;
35691;SDS011;26978;44.830;-0.674;2023-04-24T13:26:42;4.93;;;1.85;;
35691;SDS011;26978;44.830;-0.674;2023-04-24T13:29:11;9.98;;;1.90;;
35691;SDS011;26978;44.830;-0.674;2023-04-24T13:31:37;7.28;;;1.77;;
35691;SDS011;26978;44.830;-0.674;2023-04-24T13:34:03;6.82;;;2.10;;
35691;SDS011;26978;44.830;-0.674;2023-04-24T13:36:29;3.67;;;1.55;;
35691;SDS011;26978;44.830;-0.674;2023-04-24T13:38:55;3.45;;;1.30;;
35691;SDS011;26978;44.830;-0.674;2023-04-24T13:41:21;3.38;;;1.40;;
35691;SDS011;26978;44.830;-0.674;2023-04-24T13:43:49;4.50;;;1.73;;
35691;SDS011;26978;44.830;-0.674;2023-04-24T13:46:15;6.55;;;1.73;;
35691;SDS011;26978;44.830;-0.674;2023-04-24T13:48:41;7.13;;;1.60;;
35691;SDS011;26978;44.830;-0.674;2023-04-24T13:51:07;7.85;;;1.55;;
35691;SDS011;26978;44.830;-0.674;2023-04-24T13:53:33;6.28;;;1.25;;
35691;SDS011;26978;44.830;-0.674;2023-04-24T13:56:03;4.53;;;1.42;;
35691;SDS011;26978;44.830;-0.674;2023-04-24T13:58:29;6.30;;;1.38;;
35691;SDS011;26978;44.830;-0.674;2023-04-24T14:00:55;3.33;;;1.20;;
35691;SDS011;26978;44.830;-0.674;2023-04-24T14:03:21;3.95;;;1.50;;
35691;SDS011;26978;44.830;-0.674;2023-04-24T14:05:46;9.02;;;1.33;;
35691;SDS011;26978;44.830;-0.674;2023-04-24T14:08:12;5.75;;;1.10;;
35691;SDS011;26978;44.830;-0.674;2023-04-24T14:10:38;4.88;;;1.13;;
35691;SDS011;26978;44.830;-0.674;2023-04-24T14:13:03;4.88;;;1.10;;
35691;SDS011;26978;44.830;-0.674;2023-04-24T14:15:29;2.22;;;0.77;;
35691;SDS011;26978;44.830;-0.674;2023-04-24T14:17:55;4.85;;;1.08;;
35691;SDS011;26978;44.830;-0.674;2023-04-24T14:20:20;2.47;;;1.00;;
35691;SDS011;26978;44.830;-0.674;2023-04-24T14:22:46;5.13;;;1.52;;
35691;SDS011;26978;44.830;-0.674;2023-04-24T14:25:12;2.47;;;0.85;;
35691;SDS011;26978;44.830;-0.674;2023-04-24T14:27:37;3.08;;;0.80;;
35691;SDS011;26978;44.830;-0.674;2023-04-24T14:30:04;2.42;;;0.93;;
35691;SDS011;26978;44.830;-0.674;2023-04-24T14:32:30;5.22;;;1.20;;
35691;SDS011;26978;44.830;-0.674;2023-04-24T14:34:56;4.20;;;1.08;;
35691;SDS011;26978;44.830;-0.674;2023-04-24T14:37:22;2.92;;;1.15;;
35691;SDS011;26978;44.830;-0.674;2023-04-24T14:39:47;3.50;;;0.70;;
35691;SDS011;26978;44.830;-0.674;2023-04-24T14:42:13;5.07;;;0.80;;
35691;SDS011;26978;44.830;-0.674;2023-04-24T14:44:38;1.60;;;0.80;;
35691;SDS011;26978;44.830;-0.674;2023-04-24T14:47:04;2.75;;;0.60;;
35691;SDS011;26978;44.830;-0.674;2023-04-24T14:49:30;4.20;;;0.85;;
35691;SDS011;26978;44.830;-0.674;2023-04-24T14:51:56;3.28;;;1.00;;
35691;SDS011;26978;44.830;-0.674;2023-04-24T14:54:21;3.78;;;1.00;;
35691;SDS011;26978;44.830;-0.674;2023-04-24T14:56:48;2.92;;;1.10;;